Aeroporto :
LOGIN :

Iscrizione | Disclaimer

   EN    FR    IT 

 










Sommario :    VFR   VFR Marginale   IFR   IFR Intensivo   IFR Molto Intensivo
Visibilità : 
Base nubi : 
>= 8 km
>= 3000ft
5 / 8 km
1000 / 3000 ft
1500m / 5 km
500 / 1000 ft
800 / 1500m
200 / 500 ft
< 800m
< 200 ft
Simboli :   Temporali  Nebbia  Neve Forte  Precipitazioni Forti  Vento > 20 kt
SIGMETs :   Varie  Temporali  Ghiacco  Turbolenza  Onda orograficha  Ceneri Vulcaniche






- Altitudine del aeroporto : 741 ft
- Codice IATA : PED


LKPD - Pardubice AB

ULTIMO METAR :
  • 280000Z 03004KT 340V060 9999 BKN033 OVC050 03/M04 Q0997 RMK BLU

METARs OBSOLETI :
  • 272330Z 03003KT 350V130 9999 BKN040 OVC050 03/M04 Q0996 RMK BLU
  • 272300Z 04005KT 9999 BKN045 OVC070 03/M04 Q0996 RMK BLU
  • 272230Z 05007KT CAVOK 04/M05 Q0995 RMK BLU
  • 272200Z 06007KT CAVOK 04/M05 Q0995 RMK BLU
  • 272130Z 08007KT CAVOK 03/M04 Q0995 RMK BLU

TAF TAF LKPD
Valido dal 28 a 00 ore il 29 a 00 ore UTC


272300Z 2800/2900 31012KT 5000 SNRA BKN025
PROB40
TEMPO 2800/2806 3000 SN BKN013 OVC017
BECMG 2805/2807 9999 NSW BKN030
TEMPO 2806/2816 30016G28KT 6000 SHRASN BKN020
BECMG 2817/2819 30008KT CAVOK



MetMap, La meteo Aeronautica in un colpo d'occhio ! - Copyright ORBIFLY Dicembre 2007 - Disclaimer

ORBIFLY MET'MAP TEAM :

Programmazione e sviluppo : Alexandra Zaïnal
Concezione : Baudouin d'Aumeries
Aiuto per la programmazione : Marc-Olivier Méhu
Supporto tecnico e logistico : Manuel Goepfert
Aiuto per la traduzione : Arnaldo La Scala

Contatto : metmap@orbifly.com




FONTI E CREDITI :

   NOAA